Time;durP1;ratioP1;P1;durP2;ratioP2;P2;SDS_P1;SDS_P2;PMS_P1;PMS_P2;Temp;Humidity;BMP_temperature;BMP_pressure;BME280_temperature;BME280_humidity;BME280_pressure;Samples;Min_cycle;Max_cycle;Signal;HPM_P1;HPM_P2
2023/08/15 00:01:47;;;;;;;0.30;0.30;;;28.10;56.70;;;28.86;40.91;95115.19;5034847;28;20321;-39
2023/08/15 00:04:15;;;;;;;0.30;0.30;;;28.10;56.80;;;28.83;41.16;95110.41;5034894;28;20199;-40
2023/08/15 00:06:42;;;;;;;0.40;0.40;;;28.10;56.90;;;28.83;41.13;95112.28;5017553;28;20219;-47
2023/08/15 00:09:10;;;;;;;0.40;0.40;;;28.00;56.90;;;28.82;40.88;95118.78;5034970;28;20519;-37
2023/08/15 00:11:37;;;;;;;0.20;0.20;;;28.00;57.00;;;28.80;40.87;95121.78;5033980;28;20568;-37
2023/08/15 00:14:04;;;;;;;0.30;0.30;;;28.00;57.00;;;28.77;40.82;95116.22;5034911;28;20213;-40
2023/08/15 00:16:32;;;;;;;0.30;0.30;;;28.00;57.10;;;28.75;41.34;95119.22;5034837;28;20264;-42
2023/08/15 00:19:02;;;;;;;0.30;0.30;;;28.00;57.10;;;28.74;40.97;95121.09;5034030;28;20196;-39
2023/08/15 00:21:35;;;;;;;0.30;0.30;;;28.00;57.10;;;28.71;40.88;95127.13;5035694;28;20626;-36
2023/08/15 00:24:07;;;;;;;0.30;0.30;;;28.00;57.20;;;28.69;41.37;95115.03;5035199;28;20199;-36
2023/08/15 00:26:35;;;;;;;0.30;0.30;;;27.90;57.20;;;28.67;41.40;95126.06;5035024;28;20208;-39
2023/08/15 00:29:05;;;;;;;0.30;0.30;;;27.90;57.20;;;28.66;41.05;95121.81;5034517;28;20199;-39
2023/08/15 00:31:37;;;;;;;0.30;0.30;;;27.90;57.30;;;28.63;41.43;95116.22;5033821;28;20225;-36
2023/08/15 00:34:09;;;;;;;0.30;0.30;;;27.90;57.30;;;28.61;41.08;95119.19;5034701;28;20217;-37
2023/08/15 00:36:41;;;;;;;0.25;0.25;;;27.90;57.50;;;28.59;41.73;95121.41;5034943;28;20215;-37
2023/08/15 00:39:22;;;;;;;0.30;0.30;;;27.90;57.50;;;28.56;41.70;95111.22;5034729;28;20209;-39
2023/08/15 00:41:57;;;;;;;0.30;0.30;;;27.80;57.90;;;28.57;41.31;95110.09;5033772;28;20200;-39
2023/08/15 00:44:29;;;;;;;0.28;0.28;;;27.80;57.60;;;28.57;41.25;95110.91;5035606;28;20182;-39
2023/08/15 00:46:59;;;;;;;0.30;0.30;;;27.80;57.70;;;28.57;41.38;95108.19;5034862;28;20239;-36
2023/08/15 00:49:31;;;;;;;0.20;0.20;;;27.80;57.80;;;28.57;41.61;95102.81;5017853;28;20197;-39
2023/08/15 00:52:08;;;;;;;0.30;0.30;;;27.80;57.80;;;28.56;41.98;95106.63;5034025;28;20177;-40
2023/08/15 00:54:47;;;;;;;0.30;0.30;;;27.80;57.80;;;28.54;41.47;95108.00;5034630;28;20279;-36
2023/08/15 00:57:20;;;;;;;0.30;0.30;;;27.80;57.80;;;28.52;41.84;95102.13;5034070;28;20252;-39
2023/08/15 00:59:55;;;;;;;0.30;0.30;;;27.80;57.70;;;28.50;41.47;95109.72;5033187;28;20229;-37
2023/08/15 01:02:25;;;;;;;0.30;0.30;;;27.80;57.70;;;28.47;41.77;95107.63;5035409;28;20184;-36
2023/08/15 01:04:56;;;;;;;0.30;0.30;;;27.80;57.80;;;28.46;41.57;95106.03;5033759;28;20202;-37
2023/08/15 01:07:32;;;;;;;0.30;0.30;;;27.70;57.80;;;28.42;41.62;95105.84;5049928;28;20309;-39
2023/08/15 01:10:01;;;;;;;0.30;0.30;;;27.70;57.60;;;28.38;42.15;95105.63;5034571;28;20198;-40
2023/08/15 01:12:44;;;;;;;0.30;0.30;;;27.70;57.70;;;28.35;41.74;95116.22;5035872;28;20291;-39
2023/08/15 01:15:21;;;;;;;0.30;0.30;;;27.70;57.80;;;28.32;42.15;95112.22;5037927;28;20218;-36
2023/08/15 01:18:07;;;;;;;0.30;0.30;;;27.70;57.80;;;28.29;42.00;95115.53;5036762;28;20644;-39
2023/08/15 01:20:39;;;;;;;0.38;0.38;;;27.70;57.90;;;28.27;41.82;95112.31;5038301;28;20181;-36
2023/08/15 01:23:14;;;;;;;0.30;0.30;;;27.60;57.70;;;28.24;41.93;95110.22;5037283;28;20524;-39
2023/08/15 01:25:42;;;;;;;0.30;0.30;;;27.60;57.90;;;28.22;42.16;95099.75;5020385;28;20614;-37
2023/08/15 01:28:15;;;;;;;0.30;0.30;;;27.60;57.90;;;28.20;41.98;95106.53;5037227;28;20200;-36
2023/08/15 01:31:24;;;;;;;0.30;0.30;;;27.50;57.80;;;28.15;41.89;95104.75;5037946;28;20263;-39
2023/08/15 01:34:16;;;;;;;0.30;0.30;;;27.50;57.80;;;28.10;42.10;95105.63;5036852;28;20652;-36
2023/08/15 01:36:52;;;;;;;0.30;0.30;;;27.50;57.80;;;28.10;42.19;95107.53;5037669;28;20225;-36
2023/08/15 01:39:30;;;;;;;0.30;0.30;;;27.50;57.90;;;28.07;42.17;95106.22;5037714;28;20252;-39
2023/08/15 01:42:02;;;;;;;0.38;0.38;;;27.50;57.90;;;28.05;42.24;95103.03;5037436;28;20197;-40
2023/08/15 01:44:34;;;;;;;0.30;0.30;;;27.40;58.00;;;28.04;41.83;95106.81;5036986;28;20196;-40
2023/08/15 01:47:02;;;;;;;0.30;0.30;;;27.40;57.90;;;28.01;42.28;95101.19;5037081;28;20245;-40
2023/08/15 01:49:29;;;;;;;0.30;0.30;;;27.40;58.00;;;28.00;42.45;95100.38;5036095;28;20229;-41
2023/08/15 01:51:57;;;;;;;0.30;0.30;;;27.40;58.00;;;27.99;41.84;95096.13;5019882;28;20206;-39
2023/08/15 01:54:24;;;;;;;0.30;0.30;;;27.40;58.20;;;27.99;42.24;95101.50;5037007;28;20219;-39
2023/08/15 01:56:52;;;;;;;0.30;0.30;;;27.30;58.20;;;27.99;42.20;95100.69;5037227;28;20235;-40
2023/08/15 01:59:20;;;;;;;0.30;0.30;;;27.30;58.10;;;27.98;42.25;95096.41;5036150;28;20201;-36
2023/08/15 02:01:49;;;;;;;0.30;0.30;;;27.30;58.10;;;27.95;42.10;95093.22;5037422;28;20251;-37
2023/08/15 02:04:18;;;;;;;0.30;0.30;;;27.30;58.20;;;27.95;42.02;95095.91;5036940;28;20212;-36
2023/08/15 02:06:45;;;;;;;0.30;0.30;;;27.30;58.30;;;27.95;42.48;95089.72;5019951;28;20222;-37
2023/08/15 02:09:12;;;;;;;0.35;0.35;;;27.30;58.20;;;27.92;42.51;95090.31;5036678;28;20211;-37
2023/08/15 02:11:39;;;;;;;0.38;0.38;;;27.30;58.30;;;27.91;42.61;95091.41;5035834;28;20625;-37
2023/08/15 02:14:06;;;;;;;0.30;0.30;;;27.30;58.30;;;27.90;42.42;95087.91;5052416;28;20230;-37
2023/08/15 02:16:34;;;;;;;0.30;0.30;;;27.30;58.30;;;27.91;42.16;95088.72;5036594;28;20222;-37
2023/08/15 02:19:01;;;;;;;0.30;0.30;;;27.30;58.30;;;27.88;42.53;95082.03;5035574;28;20250;-37
2023/08/15 02:21:28;;;;;;;0.30;0.30;;;27.30;58.30;;;27.88;42.64;95092.00;5036589;28;20184;-37
2023/08/15 02:23:55;;;;;;;0.30;0.30;;;27.20;58.20;;;27.85;42.50;95084.50;5052107;28;20300;-37
2023/08/15 02:26:23;;;;;;;0.30;0.30;;;27.20;58.30;;;27.82;41.95;95095.88;5052204;28;20210;-40
2023/08/15 02:28:50;;;;;;;0.30;0.30;;;27.20;58.20;;;27.79;42.10;95094.59;5018976;28;20189;-37
2023/08/15 02:31:18;;;;;;;0.30;0.30;;;27.20;58.20;;;27.75;42.68;95093.59;5052101;28;20292;-37
2023/08/15 02:33:45;;;;;;;0.30;0.30;;;27.10;58.70;;;27.71;42.07;95082.59;5036538;28;20733;-37
2023/08/15 02:36:13;;;;;;;0.30;0.30;;;27.10;58.20;;;27.70;42.10;95088.28;5035787;28;20279;-37
2023/08/15 02:38:40;;;;;;;0.30;0.30;;;27.10;58.10;;;27.70;42.28;95089.09;5052070;28;20546;-42
2023/08/15 02:41:07;;;;;;;0.30;0.30;;;27.10;58.20;;;27.68;42.51;95087.78;5035353;28;20210;-39
2023/08/15 02:43:34;;;;;;;0.30;0.30;;;27.10;58.30;;;27.65;42.35;95089.19;5036493;28;20189;-36
2023/08/15 02:46:01;;;;;;;0.40;0.40;;;27.10;58.20;;;27.63;42.50;95092.16;5036390;28;20233;-38
2023/08/15 02:48:28;;;;;;;0.30;0.30;;;27.10;58.20;;;27.59;42.15;95091.16;5036831;28;20209;-36
2023/08/15 02:50:55;;;;;;;0.32;0.32;;;27.10;58.20;;;27.59;42.47;95095.75;5035720;28;20212;-36
2023/08/15 02:53:22;;;;;;;0.32;0.32;;;27.00;58.30;;;27.56;42.23;95091.75;5035449;28;20205;-37
2023/08/15 02:55:50;;;;;;;0.40;0.40;;;27.00;58.30;;;27.55;42.17;95092.03;5035796;28;20214;-38
2023/08/15 02:58:18;;;;;;;0.30;0.30;;;27.00;58.30;;;27.53;42.51;95091.56;5036205;28;20205;-37
2023/08/15 03:00:45;;;;;;;0.30;0.30;;;27.00;58.30;;;27.51;42.46;95102.59;5036134;28;20218;-37
2023/08/15 03:03:14;;;;;;;0.32;0.32;;;26.90;58.20;;;27.51;42.40;95099.13;5036011;28;20649;-37
2023/08/15 03:05:41;;;;;;;0.30;0.30;;;26.90;58.30;;;27.47;42.69;95090.81;5035676;28;20652;-37
2023/08/15 03:08:08;;;;;;;0.30;0.30;;;26.90;58.20;;;27.40;42.39;95091.16;5035650;28;20290;-37
2023/08/15 03:10:39;;;;;;;0.30;0.30;;;26.90;58.10;;;27.36;42.53;95094.75;5034633;28;20211;-37
2023/08/15 03:13:06;;;;;;;0.30;0.30;;;26.90;58.20;;;27.33;42.19;95099.63;5036058;28;20191;-37
2023/08/15 03:15:34;;;;;;;0.40;0.40;;;26.80;58.10;;;27.30;42.05;95088.66;5034544;28;20242;-37
2023/08/15 03:18:01;;;;;;;0.30;0.30;;;26.80;58.10;;;27.29;42.52;95097.81;5035491;28;20539;-37
2023/08/15 03:20:30;;;;;;;0.28;0.28;;;26.80;58.30;;;27.27;42.22;95089.22;5050940;28;20211;-37
2023/08/15 03:22:57;;;;;;;0.30;0.30;;;26.80;58.10;;;27.27;42.32;95086.53;5034541;28;20219;-37
2023/08/15 03:25:24;;;;;;;0.30;0.30;;;26.70;58.30;;;27.26;42.45;95093.03;5035381;28;20262;-37
2023/08/15 03:27:51;;;;;;;0.40;0.40;;;26.70;58.30;;;27.24;42.30;95093.31;5034368;28;20204;-37
2023/08/15 03:30:18;;;;;;;0.30;0.30;;;26.70;58.40;;;27.23;42.77;95091.69;5034895;28;20617;-37
2023/08/15 03:32:46;;;;;;;0.30;0.30;;;26.70;58.40;;;27.23;42.66;95094.41;5034313;28;20209;-37
2023/08/15 03:35:15;;;;;;;0.35;0.35;;;26.60;58.40;;;27.21;42.37;95093.09;5050421;28;20629;-37
2023/08/15 03:37:42;;;;;;;0.30;0.30;;;26.70;58.40;;;27.17;42.40;95093.69;5034176;28;20622;-37
2023/08/15 03:40:11;;;;;;;0.30;0.30;;;26.70;59.60;;;27.16;42.36;95092.09;5034099;28;20227;-39
2023/08/15 03:42:38;;;;;;;0.57;0.57;;;26.60;58.50;;;27.15;42.76;95090.47;5035028;28;20204;-39
2023/08/15 03:45:05;;;;;;;0.30;0.30;;;26.60;58.50;;;27.15;42.68;95095.88;5035047;28;20280;-39
2023/08/15 03:47:33;;;;;;;0.30;0.30;;;26.60;58.40;;;27.14;42.73;95094.25;5033841;28;20267;-39
2023/08/15 03:50:00;;;;;;;0.30;0.30;;;26.60;58.50;;;27.13;42.47;95089.97;5034921;28;20208;-40
2023/08/15 03:52:27;;;;;;;0.50;0.50;;;26.60;58.50;;;27.12;42.63;95093.78;5035233;28;20210;-40
2023/08/15 03:54:54;;;;;;;0.32;0.32;;;26.60;58.70;;;27.13;42.75;95091.88;5035437;28;20187;-40
2023/08/15 03:57:22;;;;;;;0.30;0.30;;;26.60;58.80;;;27.15;42.92;95092.38;5034896;28;20659;-40
2023/08/15 03:59:49;;;;;;;0.30;0.30;;;26.60;58.90;;;27.14;42.91;95094.25;5035136;28;20639;-46
2023/08/15 04:02:18;;;;;;;0.30;0.30;;;26.60;58.70;;;27.13;42.48;95092.66;5018841;28;20250;-38
2023/08/15 04:04:45;;;;;;;0.38;0.38;;;26.60;58.80;;;27.14;43.22;95096.16;5017707;28;20256;-39
2023/08/15 04:07:13;;;;;;;0.30;0.30;;;26.50;58.80;;;27.16;43.31;95099.38;5050453;28;20625;-38
2023/08/15 04:09:40;;;;;;;0.30;0.30;;;26.60;59.00;;;27.18;43.04;95099.88;5050581;28;20217;-36
2023/08/15 04:12:07;;;;;;;0.28;0.28;;;26.60;59.10;;;27.23;43.43;95102.47;5033996;28;20278;-39
2023/08/15 04:14:34;;;;;;;0.30;0.30;;;26.60;59.10;;;27.24;43.01;95106.78;5050403;28;20260;-38
2023/08/15 04:17:04;;;;;;;0.30;0.30;;;26.60;59.20;;;27.28;43.08;95101.59;5033725;28;20679;-38
2023/08/15 04:19:31;;;;;;;0.30;0.30;;;26.70;59.30;;;27.29;43.12;95104.03;5033652;28;20256;-39
2023/08/15 04:21:59;;;;;;;0.30;0.30;;;26.70;59.20;;;27.32;42.94;95103.41;5034965;28;20195;-39
2023/08/15 04:24:26;;;;;;;0.20;0.20;;;26.70;59.20;;;27.34;42.89;95105.81;5034706;28;20689;-38
2023/08/15 04:26:53;;;;;;;0.30;0.30;;;26.80;59.10;;;27.36;43.45;95100.16;5035207;28;20733;-39
2023/08/15 04:29:21;;;;;;;0.30;0.30;;;26.80;59.20;;;27.38;43.45;95106.03;5033580;28;20217;-39
2023/08/15 04:31:48;;;;;;;0.20;0.20;;;26.80;59.10;;;27.38;42.89;95095.25;5033683;28;20203;-39
2023/08/15 04:34:15;;;;;;;0.30;0.30;;;26.80;59.00;;;27.41;42.81;95108.16;5033634;28;20201;-39
2023/08/15 04:36:46;;;;;;;0.30;0.30;;;26.80;58.90;;;27.40;43.23;95107.31;5050112;28;20248;-39
2023/08/15 04:39:14;;;;;;;0.38;0.38;;;26.90;59.00;;;27.41;43.21;95110.88;5033490;28;20602;-39
2023/08/15 04:41:42;;;;;;;0.30;0.30;;;26.90;58.90;;;27.41;42.78;95108.97;5034554;28;20267;-39
2023/08/15 04:44:10;;;;;;;0.30;0.30;;;26.90;59.00;;;27.42;43.40;95107.09;5050152;28;20660;-39
2023/08/15 04:46:37;;;;;;;0.30;0.30;;;26.90;59.00;;;27.43;43.22;95106.78;5034490;28;20242;-39
2023/08/15 04:49:04;;;;;;;0.28;0.28;;;26.90;59.00;;;27.43;42.96;95100.59;5038191;28;20195;-39
2023/08/15 04:51:32;;;;;;;0.30;0.30;;;26.90;58.90;;;27.44;43.45;95102.19;5038306;28;20199;-38
2023/08/15 04:53:59;;;;;;;0.30;0.30;;;26.90;58.90;;;27.45;43.11;95099.22;5038764;28;20637;-39
2023/08/15 04:56:26;;;;;;;0.30;0.30;;;26.90;59.00;;;27.46;43.19;95094.59;5053736;28;20245;-39
2023/08/15 04:58:53;;;;;;;0.30;0.30;;;26.90;59.00;;;27.47;43.11;95091.63;5038076;28;20227;-39
2023/08/15 05:01:20;;;;;;;0.30;0.30;;;26.90;59.10;;;27.48;43.49;95095.91;5037879;28;20504;-39
2023/08/15 05:03:48;;;;;;;0.30;0.30;;;27.00;59.10;;;27.50;42.98;95095.59;5037066;28;20196;-39
2023/08/15 05:06:15;;;;;;;0.30;0.30;;;26.90;59.00;;;27.52;43.32;95098.03;5036955;28;20214;-38
2023/08/15 05:08:43;;;;;;;0.30;0.30;;;26.90;59.00;;;27.55;43.00;95102.81;5053596;28;20231;-38
2023/08/15 05:11:11;;;;;;;0.30;0.30;;;27.00;59.20;;;27.54;43.49;95096.63;5053369;28;20202;-38
2023/08/15 05:13:39;;;;;;;0.30;0.30;;;27.00;59.10;;;27.56;43.48;95099.03;5037513;28;20289;-39
2023/08/15 05:16:07;;;;;;;0.30;0.30;;;27.00;59.10;;;27.57;42.75;95103.31;5036743;28;20206;-40
2023/08/15 05:18:34;;;;;;;0.40;0.40;;;27.00;59.00;;;27.57;43.47;95098.72;5037932;28;20203;-36
2023/08/15 05:21:01;;;;;;;0.30;0.30;;;27.00;59.00;;;27.58;42.86;95096.84;5053781;28;20540;-36
2023/08/15 05:23:29;;;;;;;0.30;0.30;;;27.00;59.00;;;27.59;43.46;95104.63;5020855;28;20201;-36
2023/08/15 05:25:56;;;;;;;0.38;0.38;;;27.10;59.00;;;27.61;43.50;95099.75;5037234;28;20235;-36
2023/08/15 05:28:23;;;;;;;0.30;0.30;;;27.10;59.10;;;27.60;43.37;95111.63;5020873;28;20599;-36
2023/08/15 05:30:50;;;;;;;0.30;0.30;;;27.10;59.00;;;27.62;43.44;95106.75;5036640;28;20265;-39
2023/08/15 05:33:17;;;;;;;0.20;0.20;;;27.10;59.00;;;27.63;43.39;95104.84;5036460;28;20264;-37
2023/08/15 05:35:44;;;;;;;0.30;0.30;;;27.10;59.00;;;27.64;43.63;95114.53;5037378;28;20224;-37
2023/08/15 05:38:11;;;;;;;0.32;0.32;;;27.10;59.00;;;27.65;43.59;95110.72;5037857;28;20216;-37
2023/08/15 05:40:39;;;;;;;0.38;0.38;;;27.10;59.00;;;27.65;43.04;95113.44;5037230;28;20297;-37
2023/08/15 05:43:06;;;;;;;0.30;0.30;;;27.20;59.00;;;27.67;43.44;95116.59;5037555;28;20512;-37
2023/08/15 05:45:33;;;;;;;0.20;0.20;;;27.20;59.10;;;27.68;43.10;95109.34;5037474;28;20208;-37
2023/08/15 05:48:00;;;;;;;0.30;0.30;;;27.20;59.00;;;27.69;42.95;95111.72;5037019;28;20267;-37
2023/08/15 05:50:27;;;;;;;0.30;0.30;;;27.20;59.10;;;27.69;43.04;95106.34;5036963;28;20645;-37
2023/08/15 05:52:54;;;;;;;0.30;0.30;;;27.20;59.00;;;27.70;43.43;95107.94;5037423;28;20225;-37
2023/08/15 05:55:21;;;;;;;0.30;0.30;;;27.20;59.10;;;27.72;43.06;95108.47;5037090;28;20214;-38
2023/08/15 05:57:48;;;;;;;0.30;0.30;;;27.20;59.00;;;27.73;43.59;95109.25;5036568;28;20294;-37
2023/08/15 06:00:16;;;;;;;0.30;0.30;;;27.20;59.00;;;27.73;43.61;95098.47;5037132;28;20199;-37
2023/08/15 06:02:43;;;;;;;0.30;0.30;;;27.20;59.10;;;27.73;43.40;95101.94;5036924;28;20199;-37
2023/08/15 06:05:10;;;;;;;0.30;0.30;;;27.20;59.00;;;27.75;43.39;95104.38;5036910;28;20629;-37
2023/08/15 06:07:37;;;;;;;0.30;0.30;;;27.30;59.20;;;27.75;43.29;95115.94;5036875;28;20196;-37
2023/08/15 06:10:06;;;;;;;0.30;0.30;;;27.30;59.10;;;27.74;43.65;95117.03;5036691;28;20760;-37
2023/08/15 06:12:33;;;;;;;0.30;0.30;;;27.30;59.10;;;27.76;43.60;95105.97;5037031;28;20199;-37
2023/08/15 06:15:00;;;;;;;0.30;0.30;;;27.30;59.20;;;27.77;43.41;95121.03;5036851;28;20218;-37
2023/08/15 06:17:27;;;;;;;0.30;0.30;;;27.30;59.10;;;27.78;43.45;95114.53;5036872;28;20276;-37
2023/08/15 06:19:54;;;;;;;0.30;0.30;;;27.30;59.10;;;27.78;43.32;95111.84;5036402;28;20623;-37
2023/08/15 06:22:22;;;;;;;0.30;0.30;;;27.30;59.10;;;27.79;43.54;95114.25;5036536;28;20276;-37
2023/08/15 06:24:49;;;;;;;0.30;0.30;;;27.30;59.20;;;27.79;43.73;95110.75;5036477;28;20286;-38
2023/08/15 06:27:16;;;;;;;0.30;0.30;;;27.30;59.20;;;27.81;43.25;95122.03;5036580;28;20204;-37
2023/08/15 06:29:43;;;;;;;0.30;0.30;;;27.40;59.30;;;27.81;43.31;95113.97;5036558;28;20198;-37
2023/08/15 06:32:28;;;;;;;0.30;0.30;;;27.30;59.20;;;27.81;43.33;95113.97;5036636;28;20217;-37
2023/08/15 06:34:56;;;;;;;0.22;0.22;;;27.40;59.20;;;27.84;43.66;95117.97;5037011;28;20192;-37
2023/08/15 06:37:23;;;;;;;0.25;0.25;;;27.40;59.30;;;27.85;43.86;95127.66;5037137;28;20217;-37
2023/08/15 06:39:50;;;;;;;0.30;0.30;;;27.40;59.30;;;27.86;43.23;95121.16;5036291;28;20276;-37
2023/08/15 06:42:18;;;;;;;0.30;0.30;;;27.40;59.30;;;27.86;43.13;95121.94;5036407;28;20282;-37
2023/08/15 06:44:45;;;;;;;0.28;0.28;;;27.40;59.30;;;27.88;43.54;95129.72;5036368;28;20215;-37
2023/08/15 06:47:12;;;;;;;0.30;0.30;;;27.40;59.30;;;27.88;43.86;95130.53;5035991;28;20699;-37
2023/08/15 06:49:39;;;;;;;0.30;0.30;;;27.40;60.30;;;27.90;43.66;95130.25;5035832;28;20290;-37
2023/08/15 06:52:07;;;;;;;0.20;0.20;;;27.40;59.20;;;27.90;43.70;95131.03;5035944;28;20192;-37
2023/08/15 06:54:36;;;;;;;0.30;0.30;;;27.40;59.30;;;27.92;43.62;95134.25;5036440;28;20294;-37
2023/08/15 06:57:03;;;;;;;0.35;0.35;;;27.40;59.20;;;27.92;43.66;95128.06;5036301;28;20530;-37
2023/08/15 06:59:35;;;;;;;0.30;0.30;;;27.50;59.30;;;27.94;43.60;95132.06;5036100;28;20262;-37
2023/08/15 07:02:02;;;;;;;0.30;0.30;;;27.50;59.30;;;27.95;43.23;95143.63;5035637;28;20180;-37
2023/08/15 07:04:29;;;;;;;0.30;0.30;;;27.50;59.40;;;27.96;43.27;95139.84;5035776;28;20188;-37
2023/08/15 07:06:57;;;;;;;0.30;0.30;;;27.50;59.40;;;27.98;43.70;95136.84;5035663;28;20202;-37
2023/08/15 07:09:24;;;;;;;0.30;0.30;;;27.50;59.30;;;27.99;43.63;95136.56;5034886;28;20285;-37
2023/08/15 07:11:52;;;;;;;0.30;0.30;;;27.50;59.30;;;27.99;43.83;95136.56;5035426;28;20206;-37
2023/08/15 07:14:19;;;;;;;0.30;0.30;;;27.50;59.20;;;28.00;43.31;95138.13;5035733;28;20284;-37
2023/08/15 07:16:46;;;;;;;0.30;0.30;;;27.50;59.20;;;28.02;43.29;95138.66;5035116;28;20251;-37
2023/08/15 07:19:13;;;;;;;0.30;0.30;;;27.50;59.30;;;28.04;43.18;95135.66;5035587;28;20497;-37
2023/08/15 07:21:41;;;;;;;0.30;0.30;;;27.50;59.30;;;28.05;43.78;95135.41;5035422;28;20231;-37
2023/08/15 07:24:08;;;;;;;0.30;0.30;;;27.60;59.40;;;28.05;43.55;95127.31;5035958;28;20203;-37
2023/08/15 07:26:36;;;;;;;0.30;0.30;;;27.60;59.40;;;28.07;43.24;95135.88;5035644;28;20562;-37
2023/08/15 07:29:04;;;;;;;0.30;0.30;;;27.60;59.40;;;28.08;43.33;95128.59;5035315;28;20254;-37
2023/08/15 07:31:31;;;;;;;0.30;0.30;;;27.60;59.50;;;28.09;43.80;95138.31;5035170;28;20640;-37
2023/08/15 07:33:58;;;;;;;0.30;0.30;;;27.60;59.40;;;28.10;43.37;95138.00;5035278;28;20196;-37
2023/08/15 07:36:26;;;;;;;0.30;0.30;;;27.60;59.50;;;28.11;43.37;95133.38;5035192;28;20192;-37
2023/08/15 07:38:53;;;;;;;0.30;0.30;;;27.70;59.50;;;28.12;43.85;95140.38;5035112;28;20298;-37
2023/08/15 07:41:20;;;;;;;0.30;0.30;;;27.60;59.50;;;28.14;43.63;95135.50;5035145;28;20256;-37
2023/08/15 07:43:47;;;;;;;0.25;0.25;;;27.60;59.40;;;28.16;43.36;95145.97;5035400;28;20188;-37
2023/08/15 07:46:14;;;;;;;0.30;0.30;;;27.60;59.40;;;28.16;43.82;95141.41;5035521;28;20695;-37
2023/08/15 07:48:42;;;;;;;0.30;0.30;;;27.70;59.50;;;28.18;43.41;95138.41;5034213;28;20227;-37
2023/08/15 07:51:10;;;;;;;0.20;0.20;;;27.70;59.40;;;28.19;43.83;95140.78;5035123;28;20207;-37
2023/08/15 07:53:37;;;;;;;0.30;0.30;;;27.70;59.40;;;28.21;43.65;95135.91;5035255;28;20213;-37
2023/08/15 07:56:04;;;;;;;0.20;0.20;;;27.70;59.40;;;28.22;43.35;95137.50;5034966;28;20203;-38
2023/08/15 07:58:33;;;;;;;0.30;0.30;;;27.70;59.30;;;28.22;43.39;95137.50;5034873;28;20292;-38
2023/08/15 08:01:00;;;;;;;0.30;0.30;;;27.70;59.30;;;28.25;43.67;95133.41;5034779;28;20262;-37
2023/08/15 08:03:27;;;;;;;0.30;0.30;;;27.70;59.40;;;28.26;43.42;95135.00;5035190;28;20204;-37
2023/08/15 08:05:55;;;;;;;0.30;0.30;;;27.70;59.30;;;28.27;43.83;95133.91;5034820;28;20209;-37
2023/08/15 08:08:22;;;;;;;0.40;0.40;;;27.80;59.40;;;28.30;43.58;95140.63;5034227;28;20523;-37
2023/08/15 08:10:49;;;;;;;0.30;0.30;;;27.80;59.50;;;28.31;43.64;95142.19;5034658;28;20209;-37
2023/08/15 08:13:17;;;;;;;0.30;0.30;;;27.70;59.40;;;28.34;43.60;95142.38;5035346;28;20242;-37
2023/08/15 08:15:46;;;;;;;0.30;0.30;;;27.80;59.40;;;28.35;43.06;95140.50;5034783;28;20199;-37
2023/08/15 08:18:13;;;;;;;0.30;0.30;;;27.80;59.40;;;28.36;43.21;95134.03;5034668;28;20225;-37
2023/08/15 08:20:41;;;;;;;0.30;0.30;;;27.80;59.30;;;28.37;43.55;95135.59;5036136;28;20238;-37
2023/08/15 08:23:08;;;;;;;0.30;0.30;;;27.80;59.40;;;28.38;43.54;95134.50;5037947;28;20692;-38
2023/08/15 08:25:35;;;;;;;0.30;0.30;;;27.80;59.30;;;28.40;43.80;95137.69;5039252;28;20225;-38
2023/08/15 08:28:04;;;;;;;0.30;0.30;;;27.90;59.30;;;28.42;43.84;95135.50;5038677;28;20198;-37
2023/08/15 08:30:32;;;;;;;0.30;0.30;;;27.90;59.40;;;28.44;43.41;95136.00;5038924;28;20282;-38
2023/08/15 08:33:00;;;;;;;0.20;0.20;;;27.90;59.30;;;28.44;43.70;95142.19;5039594;28;20216;-37
2023/08/15 08:35:28;;;;;;;0.30;0.30;;;27.90;59.40;;;28.47;43.22;95137.31;5038518;28;20532;-37
2023/08/15 08:37:55;;;;;;;0.30;0.30;;;27.90;59.30;;;28.48;43.31;95130.78;5038669;28;20232;-37
2023/08/15 08:40:22;;;;;;;0.30;0.30;;;28.00;59.30;;;28.49;43.76;95130.50;5038690;28;20602;-37
2023/08/15 08:42:49;;;;;;;0.30;0.30;;;28.00;59.30;;;28.49;43.39;95127.00;5038418;28;20667;-37
2023/08/15 08:45:23;;;;;;;0.30;0.30;;;28.00;59.20;;;28.52;43.00;95135.28;5038361;28;20288;-37
2023/08/15 08:47:51;;;;;;;0.30;0.30;;;28.00;60.30;;;28.55;43.16;95139.28;5037260;28;20305;-37
2023/08/15 08:50:18;;;;;;;0.30;0.30;;;28.00;59.20;;;28.55;43.17;95134.72;5038238;28;20571;-37
2023/08/15 08:52:49;;;;;;;0.30;0.30;;;28.00;59.20;;;28.57;42.95;95132.50;5037235;28;20282;-37
2023/08/15 08:55:21;;;;;;;0.30;0.30;;;28.00;59.20;;;28.58;43.63;95134.09;5038171;28;20578;-37
2023/08/15 08:57:55;;;;;;;0.30;0.30;;;28.00;59.10;;;28.59;43.58;95130.28;5038356;28;20206;-37
2023/08/15 09:00:31;;;;;;;0.30;0.30;;;28.10;59.10;;;28.62;43.00;95141.59;5038311;28;20507;-37
2023/08/15 09:02:58;;;;;;;0.30;0.30;;;28.10;59.10;;;28.63;42.88;95138.59;5037905;28;20189;-37
2023/08/15 09:05:27;;;;;;;0.30;0.30;;;28.10;59.20;;;28.65;42.87;95140.97;5038254;28;20205;-37
2023/08/15 09:07:54;;;;;;;0.30;0.30;;;28.10;59.20;;;28.66;43.40;95138.00;5037939;28;20194;-37
2023/08/15 09:10:23;;;;;;;0.30;0.30;;;28.10;59.10;;;28.69;43.38;95142.03;5038184;28;20201;-37
2023/08/15 09:12:50;;;;;;;0.30;0.30;;;28.10;59.10;;;28.70;43.48;95132.81;5037671;28;20201;-37
2023/08/15 09:15:17;;;;;;;0.30;0.30;;;28.10;59.10;;;28.72;43.01;95136.81;5038081;28;20235;-37
2023/08/15 09:17:44;;;;;;;0.30;0.30;;;28.10;59.10;;;28.73;43.42;95138.41;5037687;28;20299;-37
2023/08/15 09:20:17;;;;;;;0.30;0.30;;;28.20;59.20;;;28.75;43.31;95136.19;5037730;28;20206;-37
2023/08/15 09:22:46;;;;;;;0.20;0.20;;;28.20;59.00;;;28.76;42.96;95142.41;5037519;28;20198;-37
2023/08/15 09:25:20;;;;;;;0.20;0.20;;;28.20;59.10;;;28.78;43.14;95142.88;5038236;28;20205;-37
2023/08/15 09:27:47;;;;;;;0.30;0.30;;;28.20;59.10;;;28.79;42.98;95143.69;5037621;28;20190;-37
2023/08/15 09:30:19;;;;;;;0.20;0.20;;;28.20;59.10;;;28.81;43.36;95154.97;5037526;28;20207;-37
2023/08/15 09:32:47;;;;;;;0.30;0.30;;;28.20;59.00;;;28.83;42.70;95148.19;5035620;28;20276;-37
2023/08/15 09:35:17;;;;;;;0.28;0.28;;;28.30;59.10;;;28.83;43.43;95142.81;5038046;28;20198;-37
2023/08/15 09:37:50;;;;;;;0.40;0.40;;;28.30;60.20;;;28.86;43.33;95144.09;5037343;28;20535;-37
2023/08/15 09:40:23;;;;;;;0.25;0.25;;;28.30;59.00;;;28.87;42.91;95143.78;5037589;28;20229;-37
2023/08/15 09:42:52;;;;;;;0.30;0.30;;;28.30;58.90;;;28.89;43.07;95143.47;5037145;28;20642;-37
2023/08/15 09:45:20;;;;;;;0.30;0.30;;;28.30;58.90;;;28.90;42.84;95134.28;5037289;28;20215;-37
2023/08/15 09:47:47;;;;;;;0.22;0.22;;;28.30;58.90;;;28.92;43.28;95134.78;5037040;28;20267;-37
2023/08/15 09:50:15;;;;;;;0.30;0.30;;;28.30;58.90;;;28.95;42.88;95131.47;5037448;28;20236;-37
2023/08/15 09:52:45;;;;;;;0.20;0.20;;;28.40;58.90;;;28.96;43.08;95127.66;5037022;28;20202;-39
2023/08/15 09:55:17;;;;;;;0.30;0.30;;;28.40;58.90;;;28.98;42.75;95124.66;5037380;28;20193;-38
2023/08/15 09:57:45;;;;;;;0.28;0.28;;;28.40;58.80;;;29.00;43.02;95125.16;5037240;28;20214;-37
2023/08/15 10:00:17;;;;;;;0.30;0.30;;;28.40;60.00;;;29.00;42.57;95125.97;5037005;28;20198;-37
2023/08/15 10:03:35;;;;;;;0.30;0.30;;;28.40;58.80;;;29.00;42.54;95123.25;5036175;28;20257;-38
2023/08/15 10:06:04;;;;;;;0.20;0.20;;;28.40;58.60;;;29.03;42.98;95129.94;5036770;28;20206;-37
2023/08/15 10:08:32;;;;;;;0.30;0.30;;;28.40;58.60;;;29.04;42.44;95132.34;5036786;28;20632;-37
2023/08/15 10:10:59;;;;;;;0.25;0.25;;;28.40;58.40;;;29.07;42.37;95130.94;5036491;28;20259;-37
2023/08/15 10:13:32;;;;;;;0.40;0.40;;;28.50;58.40;;;29.08;42.05;95133.31;5036629;28;20256;-37
2023/08/15 10:16:00;;;;;;;0.30;0.30;;;28.40;58.30;;;29.11;42.26;95128.41;5036701;28;20177;-37
2023/08/15 10:18:27;;;;;;;0.30;0.30;;;28.40;58.40;;;29.12;42.32;95124.63;5036553;28;20225;-37
2023/08/15 10:20:56;;;;;;;0.30;0.30;;;28.50;58.40;;;29.13;42.60;95113.50;5035920;28;20203;-37
2023/08/15 10:23:36;;;;;;;0.30;0.30;;;28.50;58.30;;;29.15;41.97;95113.19;5035873;28;20215;-37
2023/08/15 10:26:03;;;;;;;0.30;0.30;;;28.50;58.20;;;29.17;42.55;95111.00;5036998;28;20183;-38
2023/08/15 10:28:34;;;;;;;0.30;0.30;;;28.50;58.20;;;29.19;42.13;95106.88;5036090;28;20197;-38